sensor_id;sensor_type;location;lat;lon;timestamp;temperature;humidity
4107;DHT22;21906;50.812;7.132;2023-05-02T00:00:13;12.40;79.40
4107;DHT22;21906;50.812;7.132;2023-05-02T00:02:39;12.40;79.50
4107;DHT22;21906;50.812;7.132;2023-05-02T00:05:05;12.40;79.60
4107;DHT22;21906;50.812;7.132;2023-05-02T00:07:31;12.40;79.80
4107;DHT22;21906;50.812;7.132;2023-05-02T00:09:57;12.40;79.90
4107;DHT22;21906;50.812;7.132;2023-05-02T00:12:23;12.40;79.90
4107;DHT22;21906;50.812;7.132;2023-05-02T00:14:49;12.40;80.00
4107;DHT22;21906;50.812;7.132;2023-05-02T00:17:18;12.50;80.10
4107;DHT22;21906;50.812;7.132;2023-05-02T00:19:44;12.50;79.80
4107;DHT22;21906;50.812;7.132;2023-05-02T00:22:10;12.50;79.90
4107;DHT22;21906;50.812;7.132;2023-05-02T00:24:36;12.50;79.80
4107;DHT22;21906;50.812;7.132;2023-05-02T00:27:01;12.60;79.90
4107;DHT22;21906;50.812;7.132;2023-05-02T00:29:27;12.50;80.10
4107;DHT22;21906;50.812;7.132;2023-05-02T00:31:52;12.60;79.90
4107;DHT22;21906;50.812;7.132;2023-05-02T00:34:18;12.60;80.00
4107;DHT22;21906;50.812;7.132;2023-05-02T00:36:43;12.50;80.00
4107;DHT22;21906;50.812;7.132;2023-05-02T00:39:09;12.50;79.90
4107;DHT22;21906;50.812;7.132;2023-05-02T00:41:35;12.60;79.90
4107;DHT22;21906;50.812;7.132;2023-05-02T00:44:01;12.50;79.80
4107;DHT22;21906;50.812;7.132;2023-05-02T00:46:27;12.50;79.70
4107;DHT22;21906;50.812;7.132;2023-05-02T00:48:52;12.50;79.60
4107;DHT22;21906;50.812;7.132;2023-05-02T00:51:18;12.50;79.80
4107;DHT22;21906;50.812;7.132;2023-05-02T00:53:44;12.50;80.10
4107;DHT22;21906;50.812;7.132;2023-05-02T00:56:10;12.50;80.20
4107;DHT22;21906;50.812;7.132;2023-05-02T00:58:37;12.50;80.50
4107;DHT22;21906;50.812;7.132;2023-05-02T01:04:08;12.40;80.60
4107;DHT22;21906;50.812;7.132;2023-05-02T01:12:15;12.40;80.20
4107;DHT22;21906;50.812;7.132;2023-05-02T01:14:47;12.40;80.30
4107;DHT22;21906;50.812;7.132;2023-05-02T01:17:16;12.40;80.40
4107;DHT22;21906;50.812;7.132;2023-05-02T01:19:46;12.50;80.20
4107;DHT22;21906;50.812;7.132;2023-05-02T01:22:15;12.40;79.90
4107;DHT22;21906;50.812;7.132;2023-05-02T01:27:54;12.40;79.80
4107;DHT22;21906;50.812;7.132;2023-05-02T01:30:23;12.50;79.60
4107;DHT22;21906;50.812;7.132;2023-05-02T01:32:51;12.50;79.20
4107;DHT22;21906;50.812;7.132;2023-05-02T01:35:19;12.40;79.30
4107;DHT22;21906;50.812;7.132;2023-05-02T01:37:47;12.40;79.40
4107;DHT22;21906;50.812;7.132;2023-05-02T01:40:17;12.40;79.80
4107;DHT22;21906;50.812;7.132;2023-05-02T01:42:46;12.40;79.60
4107;DHT22;21906;50.812;7.132;2023-05-02T01:45:13;12.40;79.00
4107;DHT22;21906;50.812;7.132;2023-05-02T01:47:40;12.50;79.00
4107;DHT22;21906;50.812;7.132;2023-05-02T01:50:08;12.40;78.80
4107;DHT22;21906;50.812;7.132;2023-05-02T01:52:36;12.40;78.80
4107;DHT22;21906;50.812;7.132;2023-05-02T01:55:03;12.40;79.00
4107;DHT22;21906;50.812;7.132;2023-05-02T01:57:30;12.40;78.80
4107;DHT22;21906;50.812;7.132;2023-05-02T01:59:57;12.40;79.00
4107;DHT22;21906;50.812;7.132;2023-05-02T02:02:25;12.40;79.30
4107;DHT22;21906;50.812;7.132;2023-05-02T02:04:53;12.40;79.30
4107;DHT22;21906;50.812;7.132;2023-05-02T02:07:20;12.40;79.10
4107;DHT22;21906;50.812;7.132;2023-05-02T02:09:46;12.40;78.90
4107;DHT22;21906;50.812;7.132;2023-05-02T02:12:16;12.40;78.60
4107;DHT22;21906;50.812;7.132;2023-05-02T02:14:50;12.50;78.50
4107;DHT22;21906;50.812;7.132;2023-05-02T02:17:26;12.40;78.40
4107;DHT22;21906;50.812;7.132;2023-05-02T02:19:55;12.40;78.60
4107;DHT22;21906;50.812;7.132;2023-05-02T02:22:23;12.30;78.90
4107;DHT22;21906;50.812;7.132;2023-05-02T02:24:51;12.20;79.30
4107;DHT22;21906;50.812;7.132;2023-05-02T02:27:18;12.30;79.20
4107;DHT22;21906;50.812;7.132;2023-05-02T02:29:43;12.30;79.20
4107;DHT22;21906;50.812;7.132;2023-05-02T02:32:09;12.30;79.40
4107;DHT22;21906;50.812;7.132;2023-05-02T02:34:35;12.30;79.70
4107;DHT22;21906;50.812;7.132;2023-05-02T02:37:13;12.30;79.50
4107;DHT22;21906;50.812;7.132;2023-05-02T02:42:10;12.40;79.40
4107;DHT22;21906;50.812;7.132;2023-05-02T02:44:51;12.30;79.60
4107;DHT22;21906;50.812;7.132;2023-05-02T02:47:20;12.20;79.70
4107;DHT22;21906;50.812;7.132;2023-05-02T02:50:07;12.20;79.80
4107;DHT22;21906;50.812;7.132;2023-05-02T02:53:19;12.20;79.70
4107;DHT22;21906;50.812;7.132;2023-05-02T02:56:04;12.20;80.00
4107;DHT22;21906;50.812;7.132;2023-05-02T02:58:47;12.20;80.30
4107;DHT22;21906;50.812;7.132;2023-05-02T03:01:17;12.20;80.10
4107;DHT22;21906;50.812;7.132;2023-05-02T03:03:46;12.30;80.00
4107;DHT22;21906;50.812;7.132;2023-05-02T03:06:12;12.20;79.90
4107;DHT22;21906;50.812;7.132;2023-05-02T03:08:39;12.10;80.00
4107;DHT22;21906;50.812;7.132;2023-05-02T03:11:05;12.20;80.10
4107;DHT22;21906;50.812;7.132;2023-05-02T03:13:31;12.10;80.30
4107;DHT22;21906;50.812;7.132;2023-05-02T03:18:39;12.00;80.70
4107;DHT22;21906;50.812;7.132;2023-05-02T03:21:05;12.00;80.60
4107;DHT22;21906;50.812;7.132;2023-05-02T03:23:30;12.10;80.30
4107;DHT22;21906;50.812;7.132;2023-05-02T03:25:56;12.00;80.00
4107;DHT22;21906;50.812;7.132;2023-05-02T03:28:22;12.10;79.60
4107;DHT22;21906;50.812;7.132;2023-05-02T03:30:47;12.00;79.50
4107;DHT22;21906;50.812;7.132;2023-05-02T03:33:13;12.00;79.60
4107;DHT22;21906;50.812;7.132;2023-05-02T03:35:38;12.00;79.80
4107;DHT22;21906;50.812;7.132;2023-05-02T03:38:04;11.90;80.20
4107;DHT22;21906;50.812;7.132;2023-05-02T03:40:30;11.90;80.10
4107;DHT22;21906;50.812;7.132;2023-05-02T03:42:55;11.90;80.30
4107;DHT22;21906;50.812;7.132;2023-05-02T03:45:21;12.00;79.90
4107;DHT22;21906;50.812;7.132;2023-05-02T03:47:46;11.90;80.00
4107;DHT22;21906;50.812;7.132;2023-05-02T03:50:12;12.00;79.90
4107;DHT22;21906;50.812;7.132;2023-05-02T03:52:37;11.90;80.10
4107;DHT22;21906;50.812;7.132;2023-05-02T03:55:03;12.00;80.20
4107;DHT22;21906;50.812;7.132;2023-05-02T03:57:30;12.00;80.30
4107;DHT22;21906;50.812;7.132;2023-05-02T03:59:55;12.10;79.90
4107;DHT22;21906;50.812;7.132;2023-05-02T04:02:21;12.20;79.70
4107;DHT22;21906;50.812;7.132;2023-05-02T04:04:48;12.20;79.50
4107;DHT22;21906;50.812;7.132;2023-05-02T04:07:13;12.30;79.50
4107;DHT22;21906;50.812;7.132;2023-05-02T04:09:42;12.30;79.70
4107;DHT22;21906;50.812;7.132;2023-05-02T04:12:08;12.30;79.60
4107;DHT22;21906;50.812;7.132;2023-05-02T04:14:33;12.20;79.70
4107;DHT22;21906;50.812;7.132;2023-05-02T04:16:59;12.20;79.80
4107;DHT22;21906;50.812;7.132;2023-05-02T04:19:25;12.30;79.60
4107;DHT22;21906;50.812;7.132;2023-05-02T04:21:50;12.20;79.80
4107;DHT22;21906;50.812;7.132;2023-05-02T04:24:16;12.30;79.50
4107;DHT22;21906;50.812;7.132;2023-05-02T04:26:41;12.30;79.50
4107;DHT22;21906;50.812;7.132;2023-05-02T04:29:07;12.30;79.70
4107;DHT22;21906;50.812;7.132;2023-05-02T04:31:33;12.30;79.60
4107;DHT22;21906;50.812;7.132;2023-05-02T04:33:59;12.40;79.60
4107;DHT22;21906;50.812;7.132;2023-05-02T04:36:24;12.40;79.60
4107;DHT22;21906;50.812;7.132;2023-05-02T04:38:52;12.40;79.50
4107;DHT22;21906;50.812;7.132;2023-05-02T04:41:18;12.40;79.40
4107;DHT22;21906;50.812;7.132;2023-05-02T04:43:44;12.40;79.20
4107;DHT22;21906;50.812;7.132;2023-05-02T04:46:10;12.40;79.40
4107;DHT22;21906;50.812;7.132;2023-05-02T04:48:35;12.40;79.50
4107;DHT22;21906;50.812;7.132;2023-05-02T04:51:01;12.40;79.70
4107;DHT22;21906;50.812;7.132;2023-05-02T04:53:27;12.40;79.60
4107;DHT22;21906;50.812;7.132;2023-05-02T04:55:53;12.30;79.80
4107;DHT22;21906;50.812;7.132;2023-05-02T04:58:18;12.40;79.60
4107;DHT22;21906;50.812;7.132;2023-05-02T05:00:44;12.40;79.70
4107;DHT22;21906;50.812;7.132;2023-05-02T05:03:10;12.40;79.50
4107;DHT22;21906;50.812;7.132;2023-05-02T05:05:36;12.40;79.50
4107;DHT22;21906;50.812;7.132;2023-05-02T05:08:01;12.40;79.50
4107;DHT22;21906;50.812;7.132;2023-05-02T05:10:27;12.40;79.50
4107;DHT22;21906;50.812;7.132;2023-05-02T05:12:52;12.40;79.70
4107;DHT22;21906;50.812;7.132;2023-05-02T05:15:18;12.40;79.70
4107;DHT22;21906;50.812;7.132;2023-05-02T05:17:48;12.40;79.70
4107;DHT22;21906;50.812;7.132;2023-05-02T05:20:13;12.40;79.70
4107;DHT22;21906;50.812;7.132;2023-05-02T05:22:40;12.50;79.70
4107;DHT22;21906;50.812;7.132;2023-05-02T05:25:07;12.50;79.60
4107;DHT22;21906;50.812;7.132;2023-05-02T05:27:33;12.60;79.40
4107;DHT22;21906;50.812;7.132;2023-05-02T05:29:59;12.60;79.10
4107;DHT22;21906;50.812;7.132;2023-05-02T05:32:24;12.50;79.10
4107;DHT22;21906;50.812;7.132;2023-05-02T05:34:53;12.50;79.40
4107;DHT22;21906;50.812;7.132;2023-05-02T05:37:20;12.60;79.30
4107;DHT22;21906;50.812;7.132;2023-05-02T05:39:46;12.60;79.60
4107;DHT22;21906;50.812;7.132;2023-05-02T05:42:12;12.60;79.30
4107;DHT22;21906;50.812;7.132;2023-05-02T05:44:38;12.60;79.40
4107;DHT22;21906;50.812;7.132;2023-05-02T05:47:04;12.60;79.30
4107;DHT22;21906;50.812;7.132;2023-05-02T05:49:30;12.50;79.70
4107;DHT22;21906;50.812;7.132;2023-05-02T05:51:56;12.50;79.70
4107;DHT22;21906;50.812;7.132;2023-05-02T05:54:22;12.40;80.00
4107;DHT22;21906;50.812;7.132;2023-05-02T05:56:47;12.40;80.40
4107;DHT22;21906;50.812;7.132;2023-05-02T05:59:13;12.40;80.30
4107;DHT22;21906;50.812;7.132;2023-05-02T06:01:39;12.40;80.10
4107;DHT22;21906;50.812;7.132;2023-05-02T06:04:05;12.50;80.00
4107;DHT22;21906;50.812;7.132;2023-05-02T06:06:32;12.50;80.00
4107;DHT22;21906;50.812;7.132;2023-05-02T06:08:58;12.40;80.00
4107;DHT22;21906;50.812;7.132;2023-05-02T06:11:23;12.40;79.80
4107;DHT22;21906;50.812;7.132;2023-05-02T06:13:51;12.50;79.80
4107;DHT22;21906;50.812;7.132;2023-05-02T06:16:17;12.50;79.70
4107;DHT22;21906;50.812;7.132;2023-05-02T06:18:43;12.50;79.70
4107;DHT22;21906;50.812;7.132;2023-05-02T06:21:08;12.40;79.70
4107;DHT22;21906;50.812;7.132;2023-05-02T06:23:34;12.40;80.00
4107;DHT22;21906;50.812;7.132;2023-05-02T06:26:01;12.40;79.80
4107;DHT22;21906;50.812;7.132;2023-05-02T06:28:27;12.40;79.90
4107;DHT22;21906;50.812;7.132;2023-05-02T06:31:00;12.50;79.40
4107;DHT22;21906;50.812;7.132;2023-05-02T06:33:27;12.60;79.40
4107;DHT22;21906;50.812;7.132;2023-05-02T06:35:53;12.70;79.30
4107;DHT22;21906;50.812;7.132;2023-05-02T06:38:19;12.60;79.50
4107;DHT22;21906;50.812;7.132;2023-05-02T06:40:45;12.60;79.00
4107;DHT22;21906;50.812;7.132;2023-05-02T06:43:11;12.70;79.20
4107;DHT22;21906;50.812;7.132;2023-05-02T06:45:38;12.70;79.00
4107;DHT22;21906;50.812;7.132;2023-05-02T06:48:04;12.70;79.00
4107;DHT22;21906;50.812;7.132;2023-05-02T06:50:29;12.70;78.50
4107;DHT22;21906;50.812;7.132;2023-05-02T06:52:55;12.60;78.50
4107;DHT22;21906;50.812;7.132;2023-05-02T06:55:21;12.80;78.70
4107;DHT22;21906;50.812;7.132;2023-05-02T06:57:48;12.90;78.50
4107;DHT22;21906;50.812;7.132;2023-05-02T07:00:15;12.90;78.40
4107;DHT22;21906;50.812;7.132;2023-05-02T07:02:41;12.90;78.10
4107;DHT22;21906;50.812;7.132;2023-05-02T07:05:07;12.90;78.00
4107;DHT22;21906;50.812;7.132;2023-05-02T07:07:33;13.00;78.10
4107;DHT22;21906;50.812;7.132;2023-05-02T07:09:59;12.90;77.80
4107;DHT22;21906;50.812;7.132;2023-05-02T07:12:25;12.90;77.90
4107;DHT22;21906;50.812;7.132;2023-05-02T07:14:51;13.00;77.40
4107;DHT22;21906;50.812;7.132;2023-05-02T07:17:17;12.90;78.10
4107;DHT22;21906;50.812;7.132;2023-05-02T07:19:42;12.90;78.40
4107;DHT22;21906;50.812;7.132;2023-05-02T07:22:08;12.80;78.70
4107;DHT22;21906;50.812;7.132;2023-05-02T07:24:33;12.70;79.80
4107;DHT22;21906;50.812;7.132;2023-05-02T07:26:59;12.70;80.20
4107;DHT22;21906;50.812;7.132;2023-05-02T07:29:26;12.70;80.50
4107;DHT22;21906;50.812;7.132;2023-05-02T07:31:51;12.70;81.00
4107;DHT22;21906;50.812;7.132;2023-05-02T07:34:17;12.60;81.70
4107;DHT22;21906;50.812;7.132;2023-05-02T07:36:42;12.50;81.80
4107;DHT22;21906;50.812;7.132;2023-05-02T07:39:08;12.50;82.30
4107;DHT22;21906;50.812;7.132;2023-05-02T07:41:34;12.60;82.30
4107;DHT22;21906;50.812;7.132;2023-05-02T07:43:59;12.70;82.60
4107;DHT22;21906;50.812;7.132;2023-05-02T07:46:25;12.70;81.70
4107;DHT22;21906;50.812;7.132;2023-05-02T07:48:51;12.60;82.40
4107;DHT22;21906;50.812;7.132;2023-05-02T07:51:19;12.80;82.00
4107;DHT22;21906;50.812;7.132;2023-05-02T07:53:48;12.80;81.50
4107;DHT22;21906;50.812;7.132;2023-05-02T07:56:14;12.90;81.40
4107;DHT22;21906;50.812;7.132;2023-05-02T07:58:40;12.90;81.30
4107;DHT22;21906;50.812;7.132;2023-05-02T08:01:05;13.00;81.20
4107;DHT22;21906;50.812;7.132;2023-05-02T08:03:31;13.00;80.20
4107;DHT22;21906;50.812;7.132;2023-05-02T08:05:57;13.00;80.00
4107;DHT22;21906;50.812;7.132;2023-05-02T08:08:22;13.00;79.90
4107;DHT22;21906;50.812;7.132;2023-05-02T08:10:48;13.00;78.60
4107;DHT22;21906;50.812;7.132;2023-05-02T08:13:16;12.90;79.10
4107;DHT22;21906;50.812;7.132;2023-05-02T08:15:41;13.10;78.60
4107;DHT22;21906;50.812;7.132;2023-05-02T08:18:07;13.10;79.10
4107;DHT22;21906;50.812;7.132;2023-05-02T08:20:33;13.20;78.50
4107;DHT22;21906;50.812;7.132;2023-05-02T08:22:58;13.00;77.50
4107;DHT22;21906;50.812;7.132;2023-05-02T08:25:24;12.90;75.40
4107;DHT22;21906;50.812;7.132;2023-05-02T08:27:50;12.90;76.00
4107;DHT22;21906;50.812;7.132;2023-05-02T08:30:15;12.90;75.50
4107;DHT22;21906;50.812;7.132;2023-05-02T08:32:41;12.90;75.50
4107;DHT22;21906;50.812;7.132;2023-05-02T08:35:07;12.90;74.50
4107;DHT22;21906;50.812;7.132;2023-05-02T08:37:33;12.90;73.70
4107;DHT22;21906;50.812;7.132;2023-05-02T08:39:59;12.90;73.80
4107;DHT22;21906;50.812;7.132;2023-05-02T08:42:25;13.00;74.00
4107;DHT22;21906;50.812;7.132;2023-05-02T08:44:51;12.90;73.20
4107;DHT22;21906;50.812;7.132;2023-05-02T08:47:17;12.90;73.80
4107;DHT22;21906;50.812;7.132;2023-05-02T08:49:44;12.90;73.80
4107;DHT22;21906;50.812;7.132;2023-05-02T08:52:12;13.00;74.10
4107;DHT22;21906;50.812;7.132;2023-05-02T08:54:38;13.00;73.60
4107;DHT22;21906;50.812;7.132;2023-05-02T08:57:05;13.20;73.60
4107;DHT22;21906;50.812;7.132;2023-05-02T08:59:31;13.20;72.90
4107;DHT22;21906;50.812;7.132;2023-05-02T09:02:03;13.30;72.60
4107;DHT22;21906;50.812;7.132;2023-05-02T09:04:30;13.40;73.00
4107;DHT22;21906;50.812;7.132;2023-05-02T09:06:59;13.50;72.80
4107;DHT22;21906;50.812;7.132;2023-05-02T09:09:26;13.80;72.10
4107;DHT22;21906;50.812;7.132;2023-05-02T09:11:52;14.00;71.40
4107;DHT22;21906;50.812;7.132;2023-05-02T09:14:17;14.00;71.10
4107;DHT22;21906;50.812;7.132;2023-05-02T09:16:43;14.10;70.80
4107;DHT22;21906;50.812;7.132;2023-05-02T09:19:09;14.10;71.50
4107;DHT22;21906;50.812;7.132;2023-05-02T09:21:37;14.00;70.70
4107;DHT22;21906;50.812;7.132;2023-05-02T09:26:43;13.90;70.90
4107;DHT22;21906;50.812;7.132;2023-05-02T09:29:20;13.90;70.70
4107;DHT22;21906;50.812;7.132;2023-05-02T09:31:46;13.60;70.50
4107;DHT22;21906;50.812;7.132;2023-05-02T09:34:15;13.50;70.80
4107;DHT22;21906;50.812;7.132;2023-05-02T09:36:47;13.40;71.60
4107;DHT22;21906;50.812;7.132;2023-05-02T09:39:17;13.50;71.00
4107;DHT22;21906;50.812;7.132;2023-05-02T09:41:47;13.40;70.60
4107;DHT22;21906;50.812;7.132;2023-05-02T09:44:15;13.40;70.90
4107;DHT22;21906;50.812;7.132;2023-05-02T09:46:44;13.40;70.60
4107;DHT22;21906;50.812;7.132;2023-05-02T09:49:10;13.40;70.90
4107;DHT22;21906;50.812;7.132;2023-05-02T09:51:36;13.40;70.60
4107;DHT22;21906;50.812;7.132;2023-05-02T09:54:02;13.40;70.20
4107;DHT22;21906;50.812;7.132;2023-05-02T09:56:28;13.40;69.10
4107;DHT22;21906;50.812;7.132;2023-05-02T09:59:13;13.30;70.50
4107;DHT22;21906;50.812;7.132;2023-05-02T10:01:40;13.20;70.20
4107;DHT22;21906;50.812;7.132;2023-05-02T10:04:11;13.20;70.70
4107;DHT22;21906;50.812;7.132;2023-05-02T10:06:42;13.10;68.90
4107;DHT22;21906;50.812;7.132;2023-05-02T10:09:09;13.10;68.80
4107;DHT22;21906;50.812;7.132;2023-05-02T10:11:38;13.10;69.00
4107;DHT22;21906;50.812;7.132;2023-05-02T10:14:10;13.20;68.50
4107;DHT22;21906;50.812;7.132;2023-05-02T10:16:50;13.20;67.50
4107;DHT22;21906;50.812;7.132;2023-05-02T10:19:26;13.30;67.70
4107;DHT22;21906;50.812;7.132;2023-05-02T10:21:54;13.40;67.80
4107;DHT22;21906;50.812;7.132;2023-05-02T10:24:20;13.40;67.30
4107;DHT22;21906;50.812;7.132;2023-05-02T10:26:47;13.60;67.90
4107;DHT22;21906;50.812;7.132;2023-05-02T10:29:12;13.60;67.20
4107;DHT22;21906;50.812;7.132;2023-05-02T10:31:39;13.50;67.40
4107;DHT22;21906;50.812;7.132;2023-05-02T10:34:08;13.50;67.70
4107;DHT22;21906;50.812;7.132;2023-05-02T10:36:35;13.80;66.70
4107;DHT22;21906;50.812;7.132;2023-05-02T10:39:01;13.80;66.60
4107;DHT22;21906;50.812;7.132;2023-05-02T10:41:30;13.80;66.70
4107;DHT22;21906;50.812;7.132;2023-05-02T10:43:56;13.90;65.60
4107;DHT22;21906;50.812;7.132;2023-05-02T10:46:33;13.90;66.00
4107;DHT22;21906;50.812;7.132;2023-05-02T10:51:29;14.10;67.40
4107;DHT22;21906;50.812;7.132;2023-05-02T10:54:24;14.10;66.20
4107;DHT22;21906;50.812;7.132;2023-05-02T10:57:08;14.20;64.70
4107;DHT22;21906;50.812;7.132;2023-05-02T10:59:36;14.30;62.20
4107;DHT22;21906;50.812;7.132;2023-05-02T11:02:03;14.30;63.50
4107;DHT22;21906;50.812;7.132;2023-05-02T11:07:25;14.40;63.40
4107;DHT22;21906;50.812;7.132;2023-05-02T11:09:51;14.40;63.00
4107;DHT22;21906;50.812;7.132;2023-05-02T11:12:42;14.50;62.10
4107;DHT22;21906;50.812;7.132;2023-05-02T11:15:08;14.70;60.10
4107;DHT22;21906;50.812;7.132;2023-05-02T11:20:35;15.00;59.80
4107;DHT22;21906;50.812;7.132;2023-05-02T11:25:45;15.20;59.80
4107;DHT22;21906;50.812;7.132;2023-05-02T11:31:05;15.40;58.20
4107;DHT22;21906;50.812;7.132;2023-05-02T11:33:31;15.40;57.20
4107;DHT22;21906;50.812;7.132;2023-05-02T11:35:57;15.30;59.20
4107;DHT22;21906;50.812;7.132;2023-05-02T11:38:24;15.20;59.70
4107;DHT22;21906;50.812;7.132;2023-05-02T11:40:58;15.10;57.80
4107;DHT22;21906;50.812;7.132;2023-05-02T11:43:26;15.30;58.00
4107;DHT22;21906;50.812;7.132;2023-05-02T11:45:53;15.30;57.50
4107;DHT22;21906;50.812;7.132;2023-05-02T11:48:21;15.20;59.80
4107;DHT22;21906;50.812;7.132;2023-05-02T11:50:50;15.30;59.20
4107;DHT22;21906;50.812;7.132;2023-05-02T11:53:19;15.20;60.00
4107;DHT22;21906;50.812;7.132;2023-05-02T11:55:57;15.00;60.60
4107;DHT22;21906;50.812;7.132;2023-05-02T11:58:28;14.90;60.20
4107;DHT22;21906;50.812;7.132;2023-05-02T12:03:40;15.30;59.10
4107;DHT22;21906;50.812;7.132;2023-05-02T12:06:14;15.60;57.70
4107;DHT22;21906;50.812;7.132;2023-05-02T12:08:42;15.70;55.60
4107;DHT22;21906;50.812;7.132;2023-05-02T12:11:08;15.70;55.20
4107;DHT22;21906;50.812;7.132;2023-05-02T12:13:34;15.80;55.50
4107;DHT22;21906;50.812;7.132;2023-05-02T12:16:08;15.80;56.50
4107;DHT22;21906;50.812;7.132;2023-05-02T12:18:34;15.90;56.10
4107;DHT22;21906;50.812;7.132;2023-05-02T12:21:00;16.00;54.80
4107;DHT22;21906;50.812;7.132;2023-05-02T12:23:26;16.20;55.40
4107;DHT22;21906;50.812;7.132;2023-05-02T12:25:52;16.20;53.30
4107;DHT22;21906;50.812;7.132;2023-05-02T12:28:18;15.90;55.00
4107;DHT22;21906;50.812;7.132;2023-05-02T12:30:47;15.80;53.60
4107;DHT22;21906;50.812;7.132;2023-05-02T12:33:13;15.70;54.80
4107;DHT22;21906;50.812;7.132;2023-05-02T12:35:38;15.90;56.40
4107;DHT22;21906;50.812;7.132;2023-05-02T12:38:22;16.00;54.30
4107;DHT22;21906;50.812;7.132;2023-05-02T12:40:52;16.00;54.80
4107;DHT22;21906;50.812;7.132;2023-05-02T12:43:19;16.20;54.60
4107;DHT22;21906;50.812;7.132;2023-05-02T12:45:46;16.40;52.80
4107;DHT22;21906;50.812;7.132;2023-05-02T12:48:26;16.50;53.40
4107;DHT22;21906;50.812;7.132;2023-05-02T12:50:53;16.40;52.80
4107;DHT22;21906;50.812;7.132;2023-05-02T12:56:08;15.90;51.90
4107;DHT22;21906;50.812;7.132;2023-05-02T12:58:44;15.80;53.40
4107;DHT22;21906;50.812;7.132;2023-05-02T13:01:10;15.70;54.90
4107;DHT22;21906;50.812;7.132;2023-05-02T13:03:36;15.90;55.70
4107;DHT22;21906;50.812;7.132;2023-05-02T13:06:02;16.20;54.10
4107;DHT22;21906;50.812;7.132;2023-05-02T13:08:28;16.50;52.40
4107;DHT22;21906;50.812;7.132;2023-05-02T13:10:54;16.90;50.10
4107;DHT22;21906;50.812;7.132;2023-05-02T13:13:19;16.80;49.20
4107;DHT22;21906;50.812;7.132;2023-05-02T13:15:46;16.60;51.40
4107;DHT22;21906;50.812;7.132;2023-05-02T13:18:11;16.40;52.20
4107;DHT22;21906;50.812;7.132;2023-05-02T13:20:37;16.00;52.40
4107;DHT22;21906;50.812;7.132;2023-05-02T13:23:02;16.00;52.20
4107;DHT22;21906;50.812;7.132;2023-05-02T13:25:29;15.70;52.60
4107;DHT22;21906;50.812;7.132;2023-05-02T13:27:54;15.60;53.20
4107;DHT22;21906;50.812;7.132;2023-05-02T13:30:20;15.50;53.20
4107;DHT22;21906;50.812;7.132;2023-05-02T13:32:46;15.40;53.50
4107;DHT22;21906;50.812;7.132;2023-05-02T13:35:11;15.60;54.20
4107;DHT22;21906;50.812;7.132;2023-05-02T13:37:39;15.60;53.10
4107;DHT22;21906;50.812;7.132;2023-05-02T13:40:05;15.90;52.60
4107;DHT22;21906;50.812;7.132;2023-05-02T13:42:31;16.30;53.10
4107;DHT22;21906;50.812;7.132;2023-05-02T13:44:57;16.80;50.90
4107;DHT22;21906;50.812;7.132;2023-05-02T13:47:23;16.90;49.40
4107;DHT22;21906;50.812;7.132;2023-05-02T13:49:49;16.80;47.90
4107;DHT22;21906;50.812;7.132;2023-05-02T13:52:15;16.70;49.20
4107;DHT22;21906;50.812;7.132;2023-05-02T13:54:40;16.70;47.70
4107;DHT22;21906;50.812;7.132;2023-05-02T13:57:06;16.90;49.70
4107;DHT22;21906;50.812;7.132;2023-05-02T13:59:32;16.90;47.60
4107;DHT22;21906;50.812;7.132;2023-05-02T14:01:57;17.00;46.80
4107;DHT22;21906;50.812;7.132;2023-05-02T14:04:23;17.10;46.60
4107;DHT22;21906;50.812;7.132;2023-05-02T14:06:49;17.10;46.30
4107;DHT22;21906;50.812;7.132;2023-05-02T14:09:14;17.60;48.30
4107;DHT22;21906;50.812;7.132;2023-05-02T14:11:41;17.50;45.80
4107;DHT22;21906;50.812;7.132;2023-05-02T14:14:08;17.70;46.90
4107;DHT22;21906;50.812;7.132;2023-05-02T14:16:37;17.80;45.50
4107;DHT22;21906;50.812;7.132;2023-05-02T14:19:02;17.80;48.00
4107;DHT22;21906;50.812;7.132;2023-05-02T14:21:28;17.90;48.40
4107;DHT22;21906;50.812;7.132;2023-05-02T14:23:54;17.90;43.40
4107;DHT22;21906;50.812;7.132;2023-05-02T14:26:19;18.10;45.20
4107;DHT22;21906;50.812;7.132;2023-05-02T14:28:45;18.30;44.50
4107;DHT22;21906;50.812;7.132;2023-05-02T14:31:11;18.40;45.90
4107;DHT22;21906;50.812;7.132;2023-05-02T14:33:37;18.50;44.70
4107;DHT22;21906;50.812;7.132;2023-05-02T14:36:03;18.90;44.60
4107;DHT22;21906;50.812;7.132;2023-05-02T14:38:28;19.20;42.50
4107;DHT22;21906;50.812;7.132;2023-05-02T14:40:54;19.30;42.40
4107;DHT22;21906;50.812;7.132;2023-05-02T14:43:20;18.90;40.80
4107;DHT22;21906;50.812;7.132;2023-05-02T14:45:45;18.60;42.70
4107;DHT22;21906;50.812;7.132;2023-05-02T14:48:11;18.40;41.80
4107;DHT22;21906;50.812;7.132;2023-05-02T14:50:38;18.90;43.60
4107;DHT22;21906;50.812;7.132;2023-05-02T14:53:04;19.50;41.60
4107;DHT22;21906;50.812;7.132;2023-05-02T14:55:35;20.10;39.60
4107;DHT22;21906;50.812;7.132;2023-05-02T14:58:01;21.10;39.50
4107;DHT22;21906;50.812;7.132;2023-05-02T15:00:26;21.40;38.90
4107;DHT22;21906;50.812;7.132;2023-05-02T15:02:52;22.10;37.90
4107;DHT22;21906;50.812;7.132;2023-05-02T15:05:18;22.60;36.10
4107;DHT22;21906;50.812;7.132;2023-05-02T15:07:43;22.50;34.00
4107;DHT22;21906;50.812;7.132;2023-05-02T15:10:09;22.90;35.40
4107;DHT22;21906;50.812;7.132;2023-05-02T15:12:35;23.50;33.00
4107;DHT22;21906;50.812;7.132;2023-05-02T15:15:01;24.20;30.90
4107;DHT22;21906;50.812;7.132;2023-05-02T15:17:27;24.40;32.60
4107;DHT22;21906;50.812;7.132;2023-05-02T15:19:52;25.00;30.70
4107;DHT22;21906;50.812;7.132;2023-05-02T15:22:18;25.10;29.90
4107;DHT22;21906;50.812;7.132;2023-05-02T15:24:43;25.80;29.60
4107;DHT22;21906;50.812;7.132;2023-05-02T15:27:09;26.40;27.30
4107;DHT22;21906;50.812;7.132;2023-05-02T15:29:35;26.10;27.00
4107;DHT22;21906;50.812;7.132;2023-05-02T15:32:00;26.40;28.60
4107;DHT22;21906;50.812;7.132;2023-05-02T15:34:26;27.00;26.50
4107;DHT22;21906;50.812;7.132;2023-05-02T15:36:52;27.20;26.70
4107;DHT22;21906;50.812;7.132;2023-05-02T15:39:17;27.60;26.30
4107;DHT22;21906;50.812;7.132;2023-05-02T15:41:43;28.30;26.80
4107;DHT22;21906;50.812;7.132;2023-05-02T15:44:12;28.60;25.10
4107;DHT22;21906;50.812;7.132;2023-05-02T15:46:38;29.30;23.70
4107;DHT22;21906;50.812;7.132;2023-05-02T15:49:05;28.70;24.50
4107;DHT22;21906;50.812;7.132;2023-05-02T15:51:30;28.80;25.70
4107;DHT22;21906;50.812;7.132;2023-05-02T15:53:56;28.60;24.20
4107;DHT22;21906;50.812;7.132;2023-05-02T15:56:22;28.90;24.30
4107;DHT22;21906;50.812;7.132;2023-05-02T15:58:48;29.30;23.10
4107;DHT22;21906;50.812;7.132;2023-05-02T16:01:13;29.00;23.40
4107;DHT22;21906;50.812;7.132;2023-05-02T16:03:39;29.50;23.20
4107;DHT22;21906;50.812;7.132;2023-05-02T16:06:05;30.70;22.20
4107;DHT22;21906;50.812;7.132;2023-05-02T16:08:32;30.50;22.20
4107;DHT22;21906;50.812;7.132;2023-05-02T16:10:57;30.50;23.00
4107;DHT22;21906;50.812;7.132;2023-05-02T16:13:25;31.50;22.20
4107;DHT22;21906;50.812;7.132;2023-05-02T16:15:51;30.90;21.10
4107;DHT22;21906;50.812;7.132;2023-05-02T16:18:17;30.40;21.00
4107;DHT22;21906;50.812;7.132;2023-05-02T16:20:43;30.50;21.30
4107;DHT22;21906;50.812;7.132;2023-05-02T16:23:09;30.50;21.90